createdAt,value
2017-10-17T06:41:08.498Z,55
2017-10-17T06:41:48.990Z,55
2017-10-17T06:42:29.480Z,60
2017-10-17T06:43:09.968Z,60
2017-10-17T06:43:50.493Z,60
2017-10-17T06:44:31.023Z,60
2017-10-17T06:45:11.502Z,60
2017-10-17T06:45:52.011Z,60
2017-10-17T06:46:32.541Z,60
2017-10-17T06:47:13.040Z,65
2017-10-17T06:47:53.554Z,65
2017-10-17T06:50:06.281Z,65
2017-10-17T06:50:46.785Z,65
2017-10-17T06:51:27.251Z,65
2017-10-17T06:52:07.793Z,70
2017-10-17T06:52:48.303Z,70
2017-10-17T06:53:28.920Z,70
2017-10-17T06:54:09.427Z,70
2017-10-17T06:54:49.888Z,70
2017-10-17T06:57:02.648Z,75
2017-10-17T06:57:43.127Z,75
2017-10-17T06:58:23.605Z,75
2017-10-17T06:59:04.145Z,75
2017-10-17T06:59:44.659Z,75
2017-10-17T07:00:25.158Z,75
2017-10-17T07:01:05.646Z,80
2017-10-17T07:01:46.129Z,80
2017-10-17T07:02:26.625Z,80
2017-10-17T07:03:07.120Z,80
2017-10-17T07:03:47.615Z,80
2017-10-17T07:04:28.694Z,80
2017-10-17T07:05:09.212Z,80
2017-10-17T07:05:49.683Z,85
2017-10-17T07:06:30.180Z,85
2017-10-17T07:07:10.649Z,85
2017-10-17T07:07:51.121Z,85
2017-10-17T07:08:31.637Z,85
2017-10-17T07:09:12.167Z,85
2017-10-17T07:09:52.615Z,85
2017-10-17T07:10:33.095Z,90
2017-10-17T07:11:13.631Z,90
2017-10-17T07:11:54.076Z,90
2017-10-17T07:12:34.578Z,90
2017-10-17T07:13:15.060Z,90
2017-10-17T07:13:55.535Z,90
2017-10-17T07:14:36.023Z,90
2017-10-17T07:15:16.562Z,95
2017-10-17T07:15:57.012Z,95
2017-10-17T07:16:37.472Z,95
2017-10-17T07:17:17.955Z,95
2017-10-17T07:17:58.420Z,95
2017-10-17T07:18:38.930Z,95
2017-10-17T07:19:19.407Z,95
2017-10-17T07:19:59.900Z,95
2017-10-17T07:20:40.397Z,100
2017-10-17T07:21:20.891Z,100
2017-10-17T07:22:01.405Z,100
2017-10-17T07:22:41.891Z,100
2017-10-17T07:23:22.481Z,100
2017-10-17T07:24:03.053Z,100
2017-10-17T07:24:43.582Z,100
2017-10-17T07:25:24.137Z,100
2017-10-17T07:26:04.733Z,100
2017-10-17T07:26:45.902Z,100
2017-10-17T07:27:26.448Z,100
2017-10-17T07:28:06.988Z,105
2017-10-17T07:28:47.539Z,105
2017-10-17T07:29:28.108Z,105
2017-10-17T07:30:08.682Z,105
2017-10-17T07:30:49.194Z,105
2017-10-17T07:31:29.731Z,105
2017-10-17T07:32:10.310Z,105
2017-10-17T07:32:50.941Z,105
2017-10-17T07:33:31.493Z,105
2017-10-17T07:34:12.050Z,105
2017-10-17T07:34:52.609Z,105
2017-10-17T07:35:33.181Z,110
2017-10-17T07:36:13.714Z,110
2017-10-17T07:36:54.261Z,110
2017-10-17T07:37:34.832Z,110
2017-10-17T07:38:15.389Z,110
2017-10-17T07:38:55.919Z,110
2017-10-17T07:39:37.237Z,110
2017-10-17T07:40:17.792Z,110
2017-10-17T07:40:58.357Z,110
2017-10-17T07:41:38.904Z,110
2017-10-17T07:42:19.543Z,115
2017-10-17T07:43:00.115Z,115
2017-10-17T07:43:40.659Z,115
2017-10-17T07:44:21.381Z,115
2017-10-17T07:45:02.006Z,115
2017-10-17T07:45:42.568Z,115
2017-10-17T07:46:23.113Z,115
2017-10-17T07:47:03.659Z,115
2017-10-17T07:47:44.246Z,115
2017-10-17T07:48:24.783Z,120
2017-10-17T07:49:05.334Z,120
2017-10-17T07:49:45.883Z,120
2017-10-17T07:50:26.448Z,120
2017-10-17T07:51:07.001Z,120
2017-10-17T07:51:47.620Z,120
2017-10-17T07:52:28.169Z,120
2017-10-17T07:53:08.768Z,120
2017-10-17T07:53:49.994Z,120
2017-10-17T07:54:30.542Z,120
2017-10-17T07:55:11.140Z,120
2017-10-17T07:55:51.729Z,120
2017-10-17T07:56:33.137Z,125
2017-10-17T07:57:13.717Z,125
2017-10-17T07:57:54.307Z,125
2017-10-17T07:58:34.851Z,125
2017-10-17T07:59:15.457Z,125
2017-10-17T07:59:56.045Z,125
2017-10-17T08:00:36.631Z,125
2017-10-17T08:01:17.208Z,125
2017-10-17T08:01:58.374Z,125
2017-10-17T08:02:38.936Z,125
2017-10-17T08:03:19.492Z,125
2017-10-17T08:04:00.054Z,125
2017-10-17T08:04:40.621Z,125
2017-10-17T08:05:21.201Z,125
2017-10-17T08:06:01.729Z,125
2017-10-17T08:06:43.067Z,130
2017-10-17T08:07:23.640Z,130
2017-10-17T08:08:04.247Z,130
2017-10-17T08:08:44.826Z,130
2017-10-17T08:09:25.363Z,130
2017-10-17T08:10:05.917Z,130
2017-10-17T08:10:46.471Z,130
2017-10-17T08:11:27.022Z,130
2017-10-17T08:12:07.588Z,130
2017-10-17T08:12:48.122Z,130
2017-10-17T08:13:28.663Z,130
2017-10-17T08:14:09.257Z,130
2017-10-17T08:14:49.849Z,130
2017-10-17T08:15:30.447Z,130
2017-10-17T08:16:11.005Z,135
2017-10-17T08:16:51.586Z,135
2017-10-17T08:17:32.127Z,135
2017-10-17T08:18:13.659Z,135
2017-10-17T08:18:54.933Z,135
2017-10-17T08:19:35.501Z,135
2017-10-17T08:20:16.092Z,135
2017-10-17T08:20:56.658Z,135
2017-10-17T08:21:37.276Z,140
2017-10-17T08:22:17.819Z,145
2017-10-17T08:22:58.375Z,145
2017-10-17T08:23:38.950Z,145
2017-10-17T08:24:19.515Z,145
2017-10-17T08:25:00.111Z,145
2017-10-17T08:25:40.639Z,150
2017-10-17T08:26:21.161Z,150
2017-10-17T08:27:01.765Z,150
2017-10-17T08:27:42.346Z,150
2017-10-17T08:28:22.900Z,150
2017-10-17T08:29:03.484Z,150
2017-10-17T08:29:44.045Z,150
2017-10-17T08:30:24.564Z,150
2017-10-17T08:31:05.140Z,150
2017-10-17T08:31:45.649Z,150
2017-10-17T08:32:26.196Z,150
2017-10-17T08:33:08.165Z,145
2017-10-17T08:33:49.559Z,145
2017-10-17T08:34:30.123Z,140
2017-10-17T08:35:10.679Z,145
2017-10-17T08:35:51.211Z,145
2017-10-17T08:36:31.779Z,150
2017-10-17T08:37:12.382Z,155
2017-10-17T08:37:52.922Z,160
2017-10-17T08:38:33.564Z,155
2017-10-17T08:39:14.108Z,160
2017-10-17T08:39:54.683Z,160
2017-10-17T08:40:35.254Z,160
2017-10-17T08:41:15.797Z,165
2017-10-17T08:41:56.365Z,165
2017-10-17T08:42:36.896Z,165
2017-10-17T08:43:17.439Z,165
2017-10-17T08:43:58.013Z,165
2017-10-17T08:44:38.562Z,165
2017-10-17T08:45:19.138Z,165
2017-10-17T08:45:59.690Z,170
2017-10-17T08:46:40.254Z,165
2017-10-17T08:47:20.832Z,165
2017-10-17T08:48:01.399Z,165
2017-10-17T08:48:41.945Z,165
2017-10-17T08:49:22.549Z,165
2017-10-17T08:50:03.061Z,160
2017-10-17T08:50:43.626Z,160
2017-10-17T08:51:24.220Z,160
2017-10-17T08:52:04.810Z,160
2017-10-17T08:52:45.394Z,165
2017-10-17T08:53:26.011Z,165
2017-10-17T08:54:06.546Z,170
2017-10-17T08:54:47.169Z,175
2017-10-17T08:55:27.968Z,175
2017-10-17T08:56:08.689Z,175
2017-10-17T08:56:49.193Z,175
2017-10-17T08:57:29.801Z,175
2017-10-17T08:58:10.332Z,175
2017-10-17T08:58:50.905Z,175
2017-10-17T08:59:31.452Z,175
2017-10-17T09:00:12.001Z,175
2017-10-17T09:00:53.174Z,175
2017-10-17T09:01:33.734Z,175
2017-10-17T09:02:14.274Z,175
2017-10-17T09:02:54.844Z,170
2017-10-17T09:03:35.389Z,170
2017-10-17T09:04:15.989Z,170
2017-10-17T09:04:56.555Z,170
2017-10-17T09:05:37.200Z,170
2017-10-17T09:06:17.781Z,170
2017-10-17T09:06:58.336Z,170
2017-10-17T09:07:38.956Z,175
2017-10-17T09:08:19.493Z,175
2017-10-17T09:09:00.086Z,175
2017-10-17T09:09:40.670Z,180
2017-10-17T09:10:21.310Z,185
2017-10-17T09:11:01.906Z,190
2017-10-17T09:11:42.471Z,220
2017-10-17T09:12:23.024Z,265
2017-10-17T09:13:03.603Z,245
2017-10-17T09:13:44.209Z,200
2017-10-17T09:14:24.757Z,185
2017-10-17T09:15:05.377Z,195
2017-10-17T09:15:45.944Z,185
2017-10-17T09:16:26.544Z,190
2017-10-17T09:17:07.087Z,190
2017-10-17T09:17:47.630Z,190
2017-10-17T09:18:28.150Z,195
2017-10-17T09:19:08.699Z,195
2017-10-17T09:19:49.286Z,190
2017-10-17T09:20:29.839Z,190
2017-10-17T09:21:10.393Z,190
2017-10-17T09:21:50.997Z,190
2017-10-17T09:22:31.539Z,190
2017-10-17T09:23:12.099Z,190
2017-10-17T09:23:52.656Z,190
2017-10-17T09:24:33.220Z,200
2017-10-17T09:25:13.751Z,195
2017-10-17T09:25:54.322Z,200
2017-10-17T09:26:35.785Z,200
2017-10-17T09:27:16.383Z,200
2017-10-17T09:27:56.943Z,200
2017-10-17T09:28:38.202Z,205
2017-10-17T09:29:18.740Z,200
2017-10-17T09:29:59.322Z,200
2017-10-17T09:30:39.880Z,200
2017-10-17T09:31:20.472Z,200
2017-10-17T09:32:01.673Z,195
2017-10-17T09:32:42.236Z,200
2017-10-17T09:33:22.776Z,205
2017-10-17T09:34:03.331Z,200
2017-10-17T09:34:44.680Z,200
2017-10-17T09:35:25.218Z,200
2017-10-17T09:36:05.775Z,200
2017-10-17T09:36:46.372Z,200
2017-10-17T09:37:26.914Z,200
2017-10-17T09:38:07.476Z,200
2017-10-17T09:38:48.044Z,205
2017-10-17T09:39:28.652Z,205
2017-10-17T09:40:09.184Z,210
2017-10-17T09:40:49.738Z,205
2017-10-17T09:41:30.320Z,210
2017-10-17T09:42:10.963Z,210
2017-10-17T09:42:51.552Z,210
2017-10-17T09:43:32.076Z,215
2017-10-17T09:44:13.214Z,215
2017-10-17T09:44:53.770Z,215
2017-10-17T09:45:34.302Z,220
2017-10-17T09:46:14.826Z,220
2017-10-17T09:46:55.403Z,225
2017-10-17T09:47:35.974Z,225
2017-10-17T09:48:16.584Z,230
2017-10-17T09:48:57.159Z,230
2017-10-17T09:49:37.769Z,230
2017-10-17T09:50:18.429Z,235
2017-10-17T09:50:59.038Z,240
2017-10-17T09:51:39.630Z,240
2017-10-17T09:52:21.087Z,245
2017-10-17T09:53:01.684Z,250
2017-10-17T09:53:42.263Z,255
2017-10-17T09:54:22.833Z,260
2017-10-17T09:55:03.448Z,260
2017-10-17T09:55:44.059Z,265
2017-10-17T09:56:24.614Z,265
2017-10-17T09:57:05.150Z,270
2017-10-17T09:57:45.732Z,270
2017-10-17T09:58:26.306Z,275
2017-10-17T09:59:06.888Z,280
2017-10-17T09:59:47.452Z,280
2017-10-17T10:00:28.068Z,285
2017-10-17T10:01:08.711Z,280
2017-10-17T10:01:49.326Z,285
2017-10-17T10:02:29.905Z,290
2017-10-17T10:03:10.551Z,295
2017-10-17T10:03:51.159Z,295
2017-10-17T10:04:31.815Z,295
2017-10-17T10:05:12.449Z,300
2017-10-17T10:05:53.038Z,300
2017-10-17T10:06:33.631Z,295
2017-10-17T10:07:14.178Z,300
2017-10-17T10:07:54.760Z,305
2017-10-17T10:08:35.989Z,305
2017-10-17T10:09:16.634Z,310
2017-10-17T10:09:57.722Z,320
2017-10-17T10:10:38.291Z,320
2017-10-17T10:11:18.925Z,320
2017-10-17T10:11:59.503Z,315
2017-10-17T10:12:40.088Z,320
2017-10-17T10:13:23.589Z,325
2017-10-17T10:14:05.217Z,335
2017-10-17T10:14:45.765Z,335
2017-10-17T10:15:26.351Z,325
2017-10-17T10:16:08.097Z,335
2017-10-17T10:16:48.775Z,330
2017-10-17T10:17:29.348Z,330
2017-10-17T10:18:09.958Z,335
2017-10-17T10:18:50.560Z,340
2017-10-17T10:19:31.086Z,345
2017-10-17T10:20:11.689Z,345
2017-10-17T10:20:52.212Z,345
2017-10-17T10:21:32.757Z,350
2017-10-17T10:22:14.200Z,365
2017-10-17T10:22:54.780Z,365
2017-10-17T10:23:35.306Z,370
2017-10-17T10:24:15.858Z,370
2017-10-17T10:24:56.434Z,370
2017-10-17T10:25:36.963Z,385
2017-10-17T10:26:17.535Z,390
2017-10-17T10:26:58.056Z,390
2017-10-17T10:27:38.660Z,410
2017-10-17T10:28:19.222Z,420
2017-10-17T10:28:59.808Z,475
2017-10-17T10:29:40.390Z,965
2017-10-17T10:30:20.972Z,1595
2017-10-17T10:31:01.590Z,1870
2017-10-17T10:31:42.146Z,1485
2017-10-17T10:32:22.721Z,890
2017-10-17T10:33:03.328Z,510
2017-10-17T10:33:43.878Z,540
2017-10-17T10:34:24.436Z,585
2017-10-17T10:35:04.952Z,680
2017-10-17T10:35:45.477Z,910
2017-10-17T10:36:26.029Z,1255
2017-10-17T10:37:06.618Z,1670
2017-10-17T10:37:47.073Z,2035
2017-10-17T10:38:27.599Z,2150
2017-10-17T10:39:08.131Z,2170
2017-10-17T10:39:48.680Z,2180
2017-10-17T10:40:29.290Z,2200
2017-10-17T10:41:09.805Z,2210
2017-10-17T10:41:50.349Z,2220
2017-10-17T10:42:30.882Z,2175
2017-10-17T10:43:11.473Z,2170
2017-10-17T10:43:51.974Z,2205
2017-10-17T10:44:32.439Z,2205
2017-10-17T10:45:12.948Z,2195
2017-10-17T10:45:53.442Z,2200
2017-10-17T10:46:33.928Z,2160
2017-10-17T10:47:14.421Z,2150
2017-10-17T10:47:54.870Z,2165
2017-10-17T10:48:35.358Z,2225
2017-10-17T10:49:15.856Z,2210
2017-10-17T10:49:56.319Z,2185
2017-10-17T10:50:36.793Z,2245
2017-10-17T10:52:49.537Z,2250
2017-10-17T10:53:30.038Z,2245
2017-10-17T10:54:10.535Z,2245
2017-10-17T10:54:51.054Z,2235
2017-10-17T10:55:31.548Z,2240
2017-10-17T10:56:12.038Z,2255
2017-10-17T10:56:52.751Z,2285
2017-10-17T10:57:33.251Z,2275
2017-10-17T10:58:13.766Z,2280
2017-10-17T10:58:54.285Z,2270
2017-10-17T10:59:34.737Z,2265
2017-10-17T11:00:15.193Z,2220
2017-10-17T11:02:33.045Z,1965
2017-10-17T11:03:13.535Z,1385
2017-10-17T11:03:54.030Z,800
2017-10-17T11:04:34.531Z,585
2017-10-17T11:05:15.023Z,570
2017-10-17T11:05:55.573Z,540
2017-10-17T11:06:36.576Z,535
2017-10-17T11:07:17.083Z,550
2017-10-17T11:07:57.589Z,560
2017-10-17T11:08:38.103Z,560
2017-10-17T11:09:18.554Z,605
2017-10-17T11:09:59.087Z,760
2017-10-17T11:10:39.587Z,1280
2017-10-17T11:11:20.122Z,1825
2017-10-17T11:12:00.661Z,2175
2017-10-17T11:12:41.201Z,2260
2017-10-17T11:13:21.731Z,2250
2017-10-17T11:14:02.260Z,2350
2017-10-17T11:14:42.738Z,2355
2017-10-17T11:15:23.237Z,2260
2017-10-17T11:16:03.731Z,2215
2017-10-17T11:16:44.211Z,2250
2017-10-17T11:17:24.712Z,2235
2017-10-17T11:18:05.209Z,2150
2017-10-17T11:18:45.691Z,2100
2017-10-17T11:19:26.187Z,2245
2017-10-17T11:20:06.754Z,2025
2017-10-17T11:20:47.250Z,2130
2017-10-17T11:23:15.288Z,2280
2017-10-17T11:23:55.784Z,2300
2017-10-17T11:24:36.256Z,2295
2017-10-17T11:25:16.765Z,2310
2017-10-17T11:25:57.258Z,2335
2017-10-17T11:26:37.803Z,2295
2017-10-17T11:27:18.297Z,2285
2017-10-17T11:27:58.820Z,2290
2017-10-17T11:28:39.794Z,2300
2017-10-17T11:29:20.303Z,2275
2017-10-17T11:30:00.817Z,2230
2017-10-17T11:30:41.322Z,2200
2017-10-17T11:31:21.833Z,2200
2017-10-17T11:32:02.349Z,2190
2017-10-17T11:32:42.931Z,2150
2017-10-17T11:33:23.341Z,2125
2017-10-17T11:34:03.850Z,2120
2017-10-17T11:34:44.311Z,2095
2017-10-17T11:35:24.835Z,2085
2017-10-17T11:36:05.294Z,2090
2017-10-17T11:36:45.856Z,2130
2017-10-17T11:37:26.383Z,2135
2017-10-17T11:38:06.880Z,2090
2017-10-17T11:38:47.363Z,2090
2017-10-17T11:39:27.946Z,2080
2017-10-17T11:40:08.399Z,2080
2017-10-17T11:40:48.888Z,2090
2017-10-17T11:41:29.382Z,2080
2017-10-17T11:42:09.860Z,2085
2017-10-17T11:42:50.425Z,2090
2017-10-17T11:43:30.946Z,2085
2017-10-17T11:44:11.471Z,2110
2017-10-17T11:44:51.970Z,2120
2017-10-17T11:45:32.501Z,2130
2017-10-17T11:46:13.051Z,2130
2017-10-17T11:46:53.560Z,2125
2017-10-17T11:47:34.048Z,2115
2017-10-17T11:48:14.543Z,2110
2017-10-17T11:48:55.034Z,1900
2017-10-17T11:49:35.581Z,1335
2017-10-17T11:50:16.117Z,730
2017-10-17T11:50:56.639Z,565
2017-10-17T11:51:37.115Z,535
2017-10-17T11:52:17.612Z,520
2017-10-17T11:52:58.114Z,515
2017-10-17T11:53:38.691Z,515
2017-10-17T11:54:19.239Z,520
2017-10-17T11:54:59.851Z,540
2017-10-17T11:55:40.459Z,595
2017-10-17T11:56:21.072Z,1045
2017-10-17T11:57:01.638Z,1620
2017-10-17T11:57:42.227Z,2040
2017-10-17T11:58:22.834Z,2050
2017-10-17T11:59:03.404Z,2035
2017-10-17T11:59:43.983Z,2010
2017-10-17T12:00:24.607Z,2040
2017-10-17T12:01:05.175Z,2075
2017-10-17T12:01:45.793Z,2115
2017-10-17T12:02:26.382Z,2120
2017-10-17T12:03:07.655Z,2115
2017-10-17T12:03:48.252Z,2095
2017-10-17T12:04:28.866Z,2075
2017-10-17T12:05:09.462Z,2110
2017-10-17T12:05:51.032Z,2060
2017-10-17T12:06:31.575Z,2025
2017-10-17T12:07:12.164Z,2000
2017-10-17T12:07:52.721Z,1975
2017-10-17T12:08:33.271Z,1845
2017-10-17T12:09:13.801Z,1905
2017-10-17T12:09:54.365Z,1950
2017-10-17T12:10:35.632Z,1905
2017-10-17T12:11:16.158Z,1780
2017-10-17T12:11:56.687Z,1720
2017-10-17T12:12:37.217Z,1730
2017-10-17T12:13:17.722Z,1790
2017-10-17T12:13:58.840Z,1650
2017-10-17T12:14:39.324Z,1705
2017-10-17T12:15:19.820Z,1685
2017-10-17T12:16:00.306Z,1645
2017-10-17T12:16:40.887Z,1525
2017-10-17T12:17:21.305Z,1395
2017-10-17T12:18:01.862Z,1405
2017-10-17T12:18:42.357Z,1345
2017-10-17T12:19:22.880Z,1205
2017-10-17T12:20:03.399Z,1235
2017-10-17T12:20:43.921Z,1400
2017-10-17T12:21:24.457Z,1490
2017-10-17T12:22:05.025Z,1460
2017-10-17T12:22:45.597Z,1460
2017-10-17T12:23:26.165Z,1390
2017-10-17T12:24:06.674Z,1530
2017-10-17T12:24:47.236Z,1645
2017-10-17T12:25:27.746Z,1680
2017-10-17T12:26:08.243Z,1605
2017-10-17T12:26:48.749Z,1530
2017-10-17T12:27:29.338Z,1480
2017-10-17T12:28:09.789Z,1385
2017-10-17T12:28:51.250Z,1330
2017-10-17T12:29:31.748Z,1270
2017-10-17T12:30:12.296Z,1255
2017-10-17T12:30:52.792Z,1150
2017-10-17T12:31:33.286Z,1325
2017-10-17T12:32:13.801Z,1290
2017-10-17T12:32:54.328Z,1065
2017-10-17T12:33:34.903Z,1220
2017-10-17T12:34:15.325Z,1295
2017-10-17T12:34:55.850Z,1470
2017-10-17T12:35:36.371Z,1285
2017-10-17T12:36:16.895Z,1290
2017-10-17T12:36:57.429Z,1415
2017-10-17T12:37:37.906Z,1455
2017-10-17T12:38:18.413Z,1570
2017-10-17T12:38:59.046Z,1630
2017-10-17T12:39:39.565Z,1605
2017-10-17T12:40:20.067Z,1545
2017-10-17T12:41:00.574Z,1515
2017-10-17T12:41:41.175Z,1390
2017-10-17T12:42:21.780Z,1430
2017-10-17T12:43:02.320Z,1210
2017-10-17T12:43:42.958Z,1230
2017-10-17T12:44:23.460Z,1060
2017-10-17T12:45:03.965Z,770
2017-10-17T12:45:44.464Z,885
2017-10-17T12:46:24.939Z,1075
2017-10-17T12:47:06.195Z,855
2017-10-17T12:47:46.704Z,995
2017-10-17T12:48:27.231Z,1105
2017-10-17T12:49:07.721Z,1050
2017-10-17T12:49:48.256Z,1100
2017-10-17T12:50:28.761Z,1110
2017-10-17T12:51:09.266Z,1200
2017-10-17T12:51:49.755Z,1245
2017-10-17T12:52:31.181Z,1595
2017-10-17T12:53:11.668Z,1525
2017-10-17T12:53:52.161Z,1330
2017-10-17T12:54:32.674Z,1210
2017-10-17T12:55:13.166Z,1195
2017-10-17T12:55:53.708Z,1215
2017-10-17T12:56:34.177Z,1105
2017-10-17T12:57:14.680Z,925
2017-10-17T12:57:55.188Z,870
2017-10-17T12:58:35.678Z,960
2017-10-17T12:59:16.195Z,1860
2017-10-17T12:59:56.699Z,2140
2017-10-17T13:00:37.187Z,1800
2017-10-17T13:01:17.700Z,1130
2017-10-17T13:01:58.257Z,795
2017-10-17T13:02:39.024Z,710
2017-10-17T13:03:19.549Z,710
2017-10-17T13:04:00.082Z,750
2017-10-17T13:04:40.600Z,685
2017-10-17T13:05:21.114Z,635
2017-10-17T13:06:01.622Z,580
2017-10-17T13:06:42.125Z,595
2017-10-17T13:07:22.677Z,575
2017-10-17T13:08:03.262Z,550
2017-10-17T13:08:43.807Z,440
2017-10-17T13:09:24.468Z,420
2017-10-17T13:10:04.923Z,440
2017-10-17T13:10:45.439Z,500
2017-10-17T13:11:25.979Z,530
2017-10-17T13:12:07.296Z,540
2017-10-17T13:12:47.881Z,495
2017-10-17T13:13:28.412Z,460
2017-10-17T13:14:08.954Z,400
2017-10-17T13:14:49.474Z,360
2017-10-17T13:15:30.093Z,345
2017-10-17T13:16:10.636Z,330
2017-10-17T13:16:51.205Z,370
2017-10-17T13:17:31.743Z,430
2017-10-17T13:18:12.332Z,460
2017-10-17T13:18:52.874Z,525
2017-10-17T13:19:34.005Z,540
2017-10-17T13:20:14.689Z,520
2017-10-17T13:20:55.205Z,485
2017-10-17T13:21:35.833Z,460
2017-10-17T13:22:16.325Z,445
2017-10-17T13:22:56.886Z,435
2017-10-17T13:23:37.410Z,450
2017-10-17T13:24:17.971Z,480
2017-10-17T13:24:58.505Z,450
2017-10-17T13:25:39.003Z,430
2017-10-17T13:26:19.534Z,420
2017-10-17T13:27:00.271Z,420
2017-10-17T13:27:40.926Z,425
2017-10-17T13:28:21.554Z,405
2017-10-17T13:29:02.046Z,410
2017-10-17T13:29:42.536Z,380
2017-10-17T13:30:23.026Z,380
2017-10-17T13:31:03.545Z,365
2017-10-17T13:31:44.053Z,350
2017-10-17T13:32:24.546Z,340
2017-10-17T13:33:05.024Z,320
2017-10-17T13:33:45.511Z,300
2017-10-17T13:34:26.027Z,280
2017-10-17T13:35:06.559Z,280
2017-10-17T13:35:47.068Z,280
2017-10-17T13:36:27.563Z,275
2017-10-17T13:37:08.094Z,265
2017-10-17T13:37:48.591Z,250
2017-10-17T13:38:29.168Z,235
2017-10-17T13:39:09.688Z,230
2017-10-17T13:39:50.202Z,230
2017-10-17T13:40:30.765Z,235
2017-10-17T13:41:11.266Z,230
2017-10-17T13:41:51.750Z,225
2017-10-17T13:42:32.332Z,220
2017-10-17T13:43:12.890Z,210
2017-10-17T13:43:53.454Z,205
2017-10-17T13:44:34.114Z,220
2017-10-17T13:45:14.687Z,220
2017-10-17T13:45:55.954Z,215
2017-10-17T13:46:36.535Z,210
2017-10-17T13:47:17.181Z,205
2017-10-17T13:47:57.771Z,200
2017-10-17T13:48:38.402Z,200
2017-10-17T13:49:21.775Z,200
2017-10-17T13:50:02.312Z,200
2017-10-17T13:50:42.866Z,200
2017-10-17T13:51:23.406Z,205
2017-10-17T13:52:04.012Z,205
2017-10-17T13:52:44.636Z,200
2017-10-17T13:53:25.175Z,195
2017-10-17T13:54:05.730Z,190
2017-10-17T13:54:46.343Z,190
2017-10-17T13:55:26.872Z,190
2017-10-17T13:56:07.447Z,190
2017-10-17T13:56:47.992Z,185
2017-10-17T13:57:28.560Z,185
2017-10-17T13:58:09.129Z,180
2017-10-17T13:58:49.685Z,175
2017-10-17T13:59:30.222Z,170
2017-10-17T14:00:10.715Z,170
2017-10-17T14:00:51.464Z,170
2017-10-17T14:01:31.779Z,170
2017-10-17T14:02:12.257Z,175
2017-10-17T14:02:52.740Z,175
2017-10-17T14:03:33.279Z,175
2017-10-17T14:04:14.032Z,175
2017-10-17T14:04:54.579Z,170
2017-10-17T14:05:35.251Z,170
2017-10-17T14:06:15.820Z,165
2017-10-17T14:06:56.355Z,165
2017-10-17T14:07:36.886Z,165
2017-10-17T14:08:17.403Z,160
2017-10-17T14:08:57.918Z,155
2017-10-17T14:09:38.429Z,155
2017-10-17T14:10:18.936Z,155
2017-10-17T14:10:59.444Z,155
2017-10-17T14:11:39.995Z,160
2017-10-17T14:12:20.504Z,160
2017-10-17T14:13:01.014Z,160
2017-10-17T14:13:41.540Z,160
2017-10-17T14:14:22.000Z,165
2017-10-17T14:15:02.492Z,160
2017-10-17T14:15:43.006Z,160
2017-10-17T14:16:23.500Z,155
2017-10-17T14:17:04.017Z,155
2017-10-17T14:17:46.404Z,155
2017-10-17T14:18:26.894Z,155
2017-10-17T14:19:07.354Z,155
2017-10-17T14:19:47.862Z,155
2017-10-17T14:20:28.384Z,155
2017-10-17T14:21:08.916Z,155
2017-10-17T14:21:49.412Z,155
2017-10-17T14:22:29.908Z,150
2017-10-17T14:23:10.395Z,150
2017-10-17T14:23:50.880Z,145
2017-10-17T14:24:31.382Z,145
2017-10-17T14:25:11.838Z,145
2017-10-17T14:25:52.303Z,145
2017-10-17T14:26:32.784Z,145
2017-10-17T14:27:13.269Z,140
2017-10-17T14:27:53.741Z,140
2017-10-17T14:28:34.315Z,140
2017-10-17T14:29:14.801Z,140
2017-10-17T14:29:55.299Z,140
2017-10-17T14:30:35.766Z,140
2017-10-17T14:31:16.271Z,140
2017-10-17T14:31:56.789Z,135
2017-10-17T14:32:37.293Z,135
2017-10-17T14:33:17.779Z,135
2017-10-17T14:33:58.276Z,130
2017-10-17T14:34:38.756Z,130
2017-10-17T14:35:20.194Z,130
2017-10-17T14:37:53.207Z,125
2017-10-17T14:38:33.680Z,125
2017-10-17T14:39:14.154Z,125
2017-10-17T14:39:54.655Z,120
2017-10-17T14:40:35.146Z,120
2017-10-17T14:41:15.697Z,120
2017-10-17T14:41:56.194Z,120
2017-10-17T14:42:36.719Z,115
2017-10-17T14:43:17.218Z,115
2017-10-17T14:43:57.691Z,115
2017-10-17T14:44:38.199Z,115
2017-10-17T14:45:18.718Z,110
2017-10-17T14:45:59.258Z,110
2017-10-17T14:46:39.753Z,110
2017-10-17T14:47:20.249Z,110
2017-10-17T14:48:00.750Z,110
2017-10-17T14:48:41.230Z,110
2017-10-17T14:49:21.764Z,110
2017-10-17T14:50:02.274Z,110
2017-10-17T14:50:42.780Z,105
2017-10-17T14:51:23.283Z,105
2017-10-17T14:52:03.914Z,105
2017-10-17T14:52:44.473Z,105
2017-10-17T14:53:24.967Z,100
2017-10-17T14:54:05.454Z,100
2017-10-17T14:54:45.965Z,105
2017-10-17T14:55:26.478Z,100
2017-10-17T14:56:06.983Z,100
2017-10-17T14:56:47.511Z,100
2017-10-17T14:57:27.993Z,100
2017-10-17T14:58:08.488Z,100
2017-10-17T14:58:48.970Z,100
2017-10-17T14:59:29.477Z,100
2017-10-17T15:00:09.966Z,95
2017-10-17T15:00:50.469Z,95
2017-10-17T15:01:31.763Z,95
2017-10-17T15:02:12.251Z,95
2017-10-17T15:02:52.742Z,95
2017-10-17T15:03:33.240Z,95
2017-10-17T15:04:13.737Z,95
2017-10-17T15:04:54.226Z,95
2017-10-17T15:05:34.720Z,90
2017-10-17T15:06:15.213Z,90
2017-10-17T15:06:55.761Z,90
2017-10-17T15:07:36.248Z,90
2017-10-17T15:08:16.737Z,90
2017-10-17T15:08:57.255Z,90
2017-10-17T15:09:37.738Z,90
2017-10-17T15:10:18.243Z,90
2017-10-17T15:10:58.678Z,90
2017-10-17T15:11:39.178Z,85
2017-10-17T15:12:19.713Z,85
2017-10-17T15:13:00.264Z,85
2017-10-17T15:13:40.796Z,85
2017-10-17T15:14:21.294Z,85
2017-10-17T15:15:02.525Z,85
2017-10-17T15:15:43.616Z,80
2017-10-17T15:16:24.150Z,80
2017-10-17T15:17:04.677Z,80
2017-10-17T15:17:45.252Z,80
2017-10-17T15:18:25.782Z,80
2017-10-17T15:19:06.259Z,80
2017-10-17T15:19:46.757Z,80
2017-10-17T15:20:27.205Z,75
2017-10-17T15:21:07.674Z,75
2017-10-17T15:21:48.119Z,75
2017-10-17T15:22:28.601Z,75
2017-10-17T15:23:09.095Z,75
2017-10-17T15:23:49.602Z,75
2017-10-17T15:24:30.105Z,75
2017-10-17T15:25:10.599Z,75
2017-10-17T15:25:51.088Z,70
2017-10-17T15:26:31.586Z,70
2017-10-17T15:27:12.076Z,70
2017-10-17T15:27:52.570Z,70
2017-10-17T15:28:33.059Z,70
2017-10-17T15:29:13.554Z,70
2017-10-17T15:29:54.053Z,70
2017-10-17T15:30:34.539Z,65
2017-10-17T15:31:15.065Z,65
2017-10-17T15:31:55.638Z,65
2017-10-17T15:32:36.133Z,65
2017-10-17T15:33:17.084Z,65
2017-10-17T15:33:57.579Z,65
2017-10-17T15:34:38.090Z,65
2017-10-17T15:35:18.564Z,65
2017-10-17T15:35:59.060Z,60
2017-10-17T15:36:39.549Z,60
2017-10-17T15:37:20.028Z,60
2017-10-17T15:38:00.520Z,60
2017-10-17T15:38:41.021Z,60
2017-10-17T15:39:21.522Z,60
2017-10-17T15:40:02.015Z,55
2017-10-17T15:40:42.529Z,55
2017-10-17T15:41:23.015Z,55
2017-10-17T15:42:03.524Z,55
2017-10-17T15:42:44.011Z,55
2017-10-17T15:43:24.516Z,55
2017-10-17T15:44:04.995Z,55
2017-10-17T15:44:45.490Z,50
2017-10-17T15:45:25.989Z,50
2017-10-17T15:46:06.459Z,50
2017-10-17T15:46:46.958Z,50
2017-10-17T15:47:27.513Z,50
2017-10-17T15:48:08.070Z,50
2017-10-17T15:48:48.588Z,50
2017-10-17T15:49:29.154Z,45
2017-10-17T15:50:09.692Z,45
2017-10-17T15:50:50.204Z,45
2017-10-17T15:51:30.698Z,45
2017-10-17T15:52:11.198Z,45
2017-10-17T15:52:51.701Z,45
2017-10-17T15:53:32.161Z,40
2017-10-17T15:54:13.654Z,40
2017-10-17T15:54:54.144Z,40
2017-10-17T15:55:34.629Z,40
2017-10-17T15:56:15.129Z,35
2017-10-17T15:56:55.611Z,35
2017-10-17T15:57:36.129Z,35
2017-10-17T15:58:17.221Z,35
2017-10-17T15:58:57.718Z,35
2017-10-17T15:59:38.202Z,35
2017-10-17T16:00:18.671Z,35
2017-10-17T16:00:59.187Z,35
2017-10-17T16:01:39.647Z,35
2017-10-17T16:02:20.147Z,35
2017-10-17T16:03:01.230Z,30
2017-10-17T16:03:41.682Z,30
2017-10-17T16:04:22.155Z,30
2017-10-17T16:05:02.653Z,30
2017-10-17T16:05:44.134Z,30
2017-10-17T16:06:24.636Z,25
2017-10-17T16:07:05.129Z,25
2017-10-17T16:07:45.647Z,25
2017-10-17T16:08:26.147Z,25
2017-10-17T16:09:06.643Z,25